sensor_id;sensor_type;location;lat;lon;timestamp;P1;durP1;ratioP1;P2;durP2;ratioP2
6463;SDS011;3265;42.694;23.282;2023-04-03T00:00:40;7.27;;;4.50;;
6463;SDS011;3265;42.694;23.282;2023-04-03T00:03:07;8.73;;;4.27;;
6463;SDS011;3265;42.694;23.282;2023-04-03T00:05:33;6.13;;;3.83;;
6463;SDS011;3265;42.694;23.282;2023-04-03T00:08:00;9.70;;;4.07;;
6463;SDS011;3265;42.694;23.282;2023-04-03T00:10:29;8.77;;;4.13;;
6463;SDS011;3265;42.694;23.282;2023-04-03T00:12:56;7.83;;;4.43;;
6463;SDS011;3265;42.694;23.282;2023-04-03T00:15:23;9.00;;;4.33;;
6463;SDS011;3265;42.694;23.282;2023-04-03T00:17:51;5.50;;;3.80;;
6463;SDS011;3265;42.694;23.282;2023-04-03T00:20:18;6.67;;;4.50;;
6463;SDS011;3265;42.694;23.282;2023-04-03T00:22:45;8.23;;;4.47;;
6463;SDS011;3265;42.694;23.282;2023-04-03T00:25:12;8.03;;;4.40;;
6463;SDS011;3265;42.694;23.282;2023-04-03T00:27:39;11.07;;;5.60;;
6463;SDS011;3265;42.694;23.282;2023-04-03T00:30:07;11.77;;;5.47;;
6463;SDS011;3265;42.694;23.282;2023-04-03T00:32:37;9.03;;;5.70;;
6463;SDS011;3265;42.694;23.282;2023-04-03T00:35:05;9.77;;;5.93;;
6463;SDS011;3265;42.694;23.282;2023-04-03T00:37:33;10.03;;;5.73;;
6463;SDS011;3265;42.694;23.282;2023-04-03T00:39:59;12.50;;;6.27;;
6463;SDS011;3265;42.694;23.282;2023-04-03T00:42:26;10.03;;;6.27;;
6463;SDS011;3265;42.694;23.282;2023-04-03T00:48:00;10.30;;;6.23;;
6463;SDS011;3265;42.694;23.282;2023-04-03T00:50:32;12.73;;;6.10;;
6463;SDS011;3265;42.694;23.282;2023-04-03T00:53:02;13.47;;;7.10;;
6463;SDS011;3265;42.694;23.282;2023-04-03T00:55:31;14.27;;;7.57;;
6463;SDS011;3265;42.694;23.282;2023-04-03T00:57:58;19.37;;;7.87;;
6463;SDS011;3265;42.694;23.282;2023-04-03T01:00:27;18.70;;;8.97;;
6463;SDS011;3265;42.694;23.282;2023-04-03T01:02:54;21.47;;;10.20;;
6463;SDS011;3265;42.694;23.282;2023-04-03T01:05:21;18.60;;;10.77;;
6463;SDS011;3265;42.694;23.282;2023-04-03T01:07:50;20.77;;;10.70;;
6463;SDS011;3265;42.694;23.282;2023-04-03T01:10:18;26.40;;;11.33;;
6463;SDS011;3265;42.694;23.282;2023-04-03T01:12:47;21.20;;;11.77;;
6463;SDS011;3265;42.694;23.282;2023-04-03T01:15:16;23.47;;;12.13;;
6463;SDS011;3265;42.694;23.282;2023-04-03T01:17:44;23.10;;;11.20;;
6463;SDS011;3265;42.694;23.282;2023-04-03T01:20:23;24.43;;;11.13;;
6463;SDS011;3265;42.694;23.282;2023-04-03T01:23:17;19.37;;;10.07;;
6463;SDS011;3265;42.694;23.282;2023-04-03T01:25:59;20.40;;;9.77;;
6463;SDS011;3265;42.694;23.282;2023-04-03T01:28:27;20.13;;;9.80;;
6463;SDS011;3265;42.694;23.282;2023-04-03T01:30:58;15.70;;;8.20;;
6463;SDS011;3265;42.694;23.282;2023-04-03T01:33:31;18.00;;;7.80;;
6463;SDS011;3265;42.694;23.282;2023-04-03T01:35:57;12.53;;;6.77;;
6463;SDS011;3265;42.694;23.282;2023-04-03T01:38:25;10.70;;;6.13;;
6463;SDS011;3265;42.694;23.282;2023-04-03T01:40:51;14.87;;;7.80;;
6463;SDS011;3265;42.694;23.282;2023-04-03T01:43:18;14.93;;;7.83;;
6463;SDS011;3265;42.694;23.282;2023-04-03T01:45:45;13.53;;;7.30;;
6463;SDS011;3265;42.694;23.282;2023-04-03T01:48:14;10.83;;;6.60;;
6463;SDS011;3265;42.694;23.282;2023-04-03T01:50:42;14.67;;;7.77;;
6463;SDS011;3265;42.694;23.282;2023-04-03T01:53:09;15.23;;;7.83;;
6463;SDS011;3265;42.694;23.282;2023-04-03T01:55:36;19.60;;;8.77;;
6463;SDS011;3265;42.694;23.282;2023-04-03T01:58:03;14.73;;;7.33;;
6463;SDS011;3265;42.694;23.282;2023-04-03T02:00:30;18.87;;;7.70;;
6463;SDS011;3265;42.694;23.282;2023-04-03T02:02:57;13.83;;;6.30;;
6463;SDS011;3265;42.694;23.282;2023-04-03T02:05:24;11.67;;;5.37;;
6463;SDS011;3265;42.694;23.282;2023-04-03T02:07:52;8.00;;;5.00;;
6463;SDS011;3265;42.694;23.282;2023-04-03T02:10:19;9.43;;;4.93;;
6463;SDS011;3265;42.694;23.282;2023-04-03T02:12:45;9.80;;;5.17;;
6463;SDS011;3265;42.694;23.282;2023-04-03T02:15:12;10.83;;;5.73;;
6463;SDS011;3265;42.694;23.282;2023-04-03T02:17:39;11.03;;;5.70;;
6463;SDS011;3265;42.694;23.282;2023-04-03T02:20:06;14.27;;;5.50;;
6463;SDS011;3265;42.694;23.282;2023-04-03T02:22:34;14.37;;;6.00;;
6463;SDS011;3265;42.694;23.282;2023-04-03T02:25:03;13.00;;;7.20;;
6463;SDS011;3265;42.694;23.282;2023-04-03T02:27:30;16.60;;;8.20;;
6463;SDS011;3265;42.694;23.282;2023-04-03T02:29:57;12.80;;;7.90;;
6463;SDS011;3265;42.694;23.282;2023-04-03T02:32:24;15.60;;;8.23;;
6463;SDS011;3265;42.694;23.282;2023-04-03T02:34:51;14.30;;;7.80;;
6463;SDS011;3265;42.694;23.282;2023-04-03T02:37:18;18.40;;;9.03;;
6463;SDS011;3265;42.694;23.282;2023-04-03T02:39:45;18.77;;;8.27;;
6463;SDS011;3265;42.694;23.282;2023-04-03T02:42:14;18.80;;;8.60;;
6463;SDS011;3265;42.694;23.282;2023-04-03T02:44:41;21.50;;;8.87;;
6463;SDS011;3265;42.694;23.282;2023-04-03T02:47:07;19.50;;;7.87;;
6463;SDS011;3265;42.694;23.282;2023-04-03T02:49:34;16.97;;;8.40;;
6463;SDS011;3265;42.694;23.282;2023-04-03T02:52:01;14.17;;;7.93;;
6463;SDS011;3265;42.694;23.282;2023-04-03T02:54:28;22.13;;;8.43;;
6463;SDS011;3265;42.694;23.282;2023-04-03T02:56:55;16.43;;;7.77;;
6463;SDS011;3265;42.694;23.282;2023-04-03T02:59:24;14.17;;;9.10;;
6463;SDS011;3265;42.694;23.282;2023-04-03T03:01:51;20.60;;;10.00;;
6463;SDS011;3265;42.694;23.282;2023-04-03T03:04:18;21.83;;;10.30;;
6463;SDS011;3265;42.694;23.282;2023-04-03T03:06:45;16.67;;;10.03;;
6463;SDS011;3265;42.694;23.282;2023-04-03T03:09:15;16.73;;;9.83;;
6463;SDS011;3265;42.694;23.282;2023-04-03T03:11:42;14.70;;;9.20;;
6463;SDS011;3265;42.694;23.282;2023-04-03T03:14:09;16.20;;;9.47;;
6463;SDS011;3265;42.694;23.282;2023-04-03T03:16:37;17.67;;;9.40;;
6463;SDS011;3265;42.694;23.282;2023-04-03T03:19:04;13.17;;;8.47;;
6463;SDS011;3265;42.694;23.282;2023-04-03T03:21:31;16.37;;;8.80;;
6463;SDS011;3265;42.694;23.282;2023-04-03T03:23:58;17.90;;;9.27;;
6463;SDS011;3265;42.694;23.282;2023-04-03T03:26:25;22.67;;;9.20;;
6463;SDS011;3265;42.694;23.282;2023-04-03T03:28:52;15.90;;;8.80;;
6463;SDS011;3265;42.694;23.282;2023-04-03T03:31:19;12.53;;;8.33;;
6463;SDS011;3265;42.694;23.282;2023-04-03T03:33:47;11.47;;;8.17;;
6463;SDS011;3265;42.694;23.282;2023-04-03T03:36:14;16.03;;;9.20;;
6463;SDS011;3265;42.694;23.282;2023-04-03T03:38:41;18.77;;;9.60;;
6463;SDS011;3265;42.694;23.282;2023-04-03T03:41:07;14.60;;;8.57;;
6463;SDS011;3265;42.694;23.282;2023-04-03T03:43:34;17.00;;;9.47;;
6463;SDS011;3265;42.694;23.282;2023-04-03T03:46:02;38.50;;;15.17;;
6463;SDS011;3265;42.694;23.282;2023-04-03T03:48:31;34.23;;;17.33;;
6463;SDS011;3265;42.694;23.282;2023-04-03T03:51:00;46.27;;;21.70;;
6463;SDS011;3265;42.694;23.282;2023-04-03T03:53:27;112.73;;;60.73;;
6463;SDS011;3265;42.694;23.282;2023-04-03T03:55:56;149.80;;;81.17;;
6463;SDS011;3265;42.694;23.282;2023-04-03T03:58:23;119.87;;;62.50;;
6463;SDS011;3265;42.694;23.282;2023-04-03T04:00:50;85.67;;;47.13;;
6463;SDS011;3265;42.694;23.282;2023-04-03T04:03:18;71.33;;;35.93;;
6463;SDS011;3265;42.694;23.282;2023-04-03T04:05:46;78.50;;;41.93;;
6463;SDS011;3265;42.694;23.282;2023-04-03T04:08:14;107.20;;;53.73;;
6463;SDS011;3265;42.694;23.282;2023-04-03T04:10:41;116.87;;;59.57;;
6463;SDS011;3265;42.694;23.282;2023-04-03T04:13:08;130.40;;;69.50;;
6463;SDS011;3265;42.694;23.282;2023-04-03T04:15:36;139.33;;;76.27;;
6463;SDS011;3265;42.694;23.282;2023-04-03T04:18:03;116.37;;;65.40;;
6463;SDS011;3265;42.694;23.282;2023-04-03T04:20:30;84.37;;;46.30;;
6463;SDS011;3265;42.694;23.282;2023-04-03T04:23:13;69.70;;;39.30;;
6463;SDS011;3265;42.694;23.282;2023-04-03T04:25:40;40.93;;;23.63;;
6463;SDS011;3265;42.694;23.282;2023-04-03T04:28:07;29.50;;;16.03;;
6463;SDS011;3265;42.694;23.282;2023-04-03T04:30:34;36.90;;;22.40;;
6463;SDS011;3265;42.694;23.282;2023-04-03T04:33:01;45.57;;;24.40;;
6463;SDS011;3265;42.694;23.282;2023-04-03T04:35:28;47.57;;;28.60;;
6463;SDS011;3265;42.694;23.282;2023-04-03T04:37:58;49.20;;;27.93;;
6463;SDS011;3265;42.694;23.282;2023-04-03T04:40:29;43.00;;;24.73;;
6463;SDS011;3265;42.694;23.282;2023-04-03T04:42:59;40.13;;;20.57;;
6463;SDS011;3265;42.694;23.282;2023-04-03T04:45:26;37.17;;;17.80;;
6463;SDS011;3265;42.694;23.282;2023-04-03T04:47:56;31.20;;;16.43;;
6463;SDS011;3265;42.694;23.282;2023-04-03T04:50:23;39.93;;;17.47;;
6463;SDS011;3265;42.694;23.282;2023-04-03T04:52:50;47.67;;;22.73;;
6463;SDS011;3265;42.694;23.282;2023-04-03T04:55:17;38.53;;;22.83;;
6463;SDS011;3265;42.694;23.282;2023-04-03T04:57:46;49.60;;;21.90;;
6463;SDS011;3265;42.694;23.282;2023-04-03T05:00:13;57.80;;;23.10;;
6463;SDS011;3265;42.694;23.282;2023-04-03T05:02:41;46.57;;;24.00;;
6463;SDS011;3265;42.694;23.282;2023-04-03T05:05:08;35.33;;;20.43;;
6463;SDS011;3265;42.694;23.282;2023-04-03T05:07:35;38.40;;;18.83;;
6463;SDS011;3265;42.694;23.282;2023-04-03T05:10:02;41.23;;;22.00;;
6463;SDS011;3265;42.694;23.282;2023-04-03T05:12:29;53.10;;;23.07;;
6463;SDS011;3265;42.694;23.282;2023-04-03T05:14:58;49.87;;;24.47;;
6463;SDS011;3265;42.694;23.282;2023-04-03T05:17:24;49.07;;;25.87;;
6463;SDS011;3265;42.694;23.282;2023-04-03T05:19:51;66.40;;;27.37;;
6463;SDS011;3265;42.694;23.282;2023-04-03T05:22:18;46.63;;;26.43;;
6463;SDS011;3265;42.694;23.282;2023-04-03T05:24:45;34.47;;;17.50;;
6463;SDS011;3265;42.694;23.282;2023-04-03T05:27:12;31.13;;;16.17;;
6463;SDS011;3265;42.694;23.282;2023-04-03T05:29:39;34.27;;;17.50;;
6463;SDS011;3265;42.694;23.282;2023-04-03T05:32:11;41.93;;;16.93;;
6463;SDS011;3265;42.694;23.282;2023-04-03T05:34:38;35.37;;;15.00;;
6463;SDS011;3265;42.694;23.282;2023-04-03T05:37:04;23.40;;;12.97;;
6463;SDS011;3265;42.694;23.282;2023-04-03T05:39:31;25.10;;;12.07;;
6463;SDS011;3265;42.694;23.282;2023-04-03T05:41:59;23.40;;;9.47;;
6463;SDS011;3265;42.694;23.282;2023-04-03T05:44:26;22.63;;;9.20;;
6463;SDS011;3265;42.694;23.282;2023-04-03T05:46:53;16.93;;;7.90;;
6463;SDS011;3265;42.694;23.282;2023-04-03T05:49:21;17.57;;;9.00;;
6463;SDS011;3265;42.694;23.282;2023-04-03T05:51:48;26.53;;;10.97;;
6463;SDS011;3265;42.694;23.282;2023-04-03T05:54:17;23.77;;;11.20;;
6463;SDS011;3265;42.694;23.282;2023-04-03T05:56:48;28.97;;;12.43;;
6463;SDS011;3265;42.694;23.282;2023-04-03T05:59:15;33.10;;;13.43;;
6463;SDS011;3265;42.694;23.282;2023-04-03T06:01:42;30.00;;;13.80;;
6463;SDS011;3265;42.694;23.282;2023-04-03T06:04:09;34.33;;;15.23;;
6463;SDS011;3265;42.694;23.282;2023-04-03T06:06:44;25.40;;;13.50;;
6463;SDS011;3265;42.694;23.282;2023-04-03T06:09:12;31.60;;;13.30;;
6463;SDS011;3265;42.694;23.282;2023-04-03T06:11:39;31.00;;;12.63;;
6463;SDS011;3265;42.694;23.282;2023-04-03T06:14:07;26.93;;;12.07;;
6463;SDS011;3265;42.694;23.282;2023-04-03T06:16:34;28.73;;;12.57;;
6463;SDS011;3265;42.694;23.282;2023-04-03T06:19:01;31.10;;;10.80;;
6463;SDS011;3265;42.694;23.282;2023-04-03T06:21:29;24.37;;;11.83;;
6463;SDS011;3265;42.694;23.282;2023-04-03T06:23:58;32.57;;;11.00;;
6463;SDS011;3265;42.694;23.282;2023-04-03T06:26:24;28.67;;;12.43;;
6463;SDS011;3265;42.694;23.282;2023-04-03T06:28:52;27.77;;;11.67;;
6463;SDS011;3265;42.694;23.282;2023-04-03T06:31:19;18.63;;;10.97;;
6463;SDS011;3265;42.694;23.282;2023-04-03T06:33:46;23.13;;;11.90;;
6463;SDS011;3265;42.694;23.282;2023-04-03T06:36:13;31.07;;;13.87;;
6463;SDS011;3265;42.694;23.282;2023-04-03T06:38:40;31.37;;;14.40;;
6463;SDS011;3265;42.694;23.282;2023-04-03T06:41:08;27.03;;;15.83;;
6463;SDS011;3265;42.694;23.282;2023-04-03T06:43:35;31.23;;;17.00;;
6463;SDS011;3265;42.694;23.282;2023-04-03T06:46:02;30.63;;;17.20;;
6463;SDS011;3265;42.694;23.282;2023-04-03T06:48:30;34.73;;;16.70;;
6463;SDS011;3265;42.694;23.282;2023-04-03T06:50:57;35.97;;;16.07;;
6463;SDS011;3265;42.694;23.282;2023-04-03T06:53:24;33.77;;;15.47;;
6463;SDS011;3265;42.694;23.282;2023-04-03T06:55:51;23.33;;;13.53;;
6463;SDS011;3265;42.694;23.282;2023-04-03T06:58:19;28.23;;;14.30;;
6463;SDS011;3265;42.694;23.282;2023-04-03T07:00:47;34.37;;;14.60;;
6463;SDS011;3265;42.694;23.282;2023-04-03T07:03:14;31.67;;;15.53;;
6463;SDS011;3265;42.694;23.282;2023-04-03T07:05:41;48.00;;;19.20;;
6463;SDS011;3265;42.694;23.282;2023-04-03T07:08:09;33.60;;;17.50;;
6463;SDS011;3265;42.694;23.282;2023-04-03T07:10:37;27.43;;;15.70;;
6463;SDS011;3265;42.694;23.282;2023-04-03T07:13:04;30.50;;;13.73;;
6463;SDS011;3265;42.694;23.282;2023-04-03T07:15:33;25.97;;;11.23;;
6463;SDS011;3265;42.694;23.282;2023-04-03T07:18:02;22.73;;;11.50;;
6463;SDS011;3265;42.694;23.282;2023-04-03T07:20:29;20.33;;;11.30;;
6463;SDS011;3265;42.694;23.282;2023-04-03T07:22:56;20.63;;;10.80;;
6463;SDS011;3265;42.694;23.282;2023-04-03T07:25:23;18.17;;;10.07;;
6463;SDS011;3265;42.694;23.282;2023-04-03T07:27:50;21.40;;;10.97;;
6463;SDS011;3265;42.694;23.282;2023-04-03T07:30:17;20.73;;;11.17;;
6463;SDS011;3265;42.694;23.282;2023-04-03T07:32:45;15.90;;;9.77;;
6463;SDS011;3265;42.694;23.282;2023-04-03T07:35:12;16.37;;;8.83;;
6463;SDS011;3265;42.694;23.282;2023-04-03T07:37:39;15.97;;;7.70;;
6463;SDS011;3265;42.694;23.282;2023-04-03T07:40:06;10.53;;;6.80;;
6463;SDS011;3265;42.694;23.282;2023-04-03T07:42:34;14.20;;;7.17;;
6463;SDS011;3265;42.694;23.282;2023-04-03T07:45:01;15.90;;;7.23;;
6463;SDS011;3265;42.694;23.282;2023-04-03T07:47:28;13.40;;;8.40;;
6463;SDS011;3265;42.694;23.282;2023-04-03T07:49:56;11.83;;;8.10;;
6463;SDS011;3265;42.694;23.282;2023-04-03T07:52:24;22.50;;;8.40;;
6463;SDS011;3265;42.694;23.282;2023-04-03T07:54:50;16.13;;;8.27;;
6463;SDS011;3265;42.694;23.282;2023-04-03T07:57:17;13.60;;;7.40;;
6463;SDS011;3265;42.694;23.282;2023-04-03T07:59:44;10.73;;;6.43;;
6463;SDS011;3265;42.694;23.282;2023-04-03T08:02:11;9.30;;;5.80;;
6463;SDS011;3265;42.694;23.282;2023-04-03T08:04:39;10.93;;;6.60;;
6463;SDS011;3265;42.694;23.282;2023-04-03T08:07:07;11.00;;;7.00;;
6463;SDS011;3265;42.694;23.282;2023-04-03T08:09:34;13.47;;;7.53;;
6463;SDS011;3265;42.694;23.282;2023-04-03T08:12:01;18.43;;;8.50;;
6463;SDS011;3265;42.694;23.282;2023-04-03T08:14:29;12.47;;;8.17;;
6463;SDS011;3265;42.694;23.282;2023-04-03T08:16:59;14.70;;;8.57;;
6463;SDS011;3265;42.694;23.282;2023-04-03T08:19:28;23.47;;;8.90;;
6463;SDS011;3265;42.694;23.282;2023-04-03T08:21:54;26.63;;;10.27;;
6463;SDS011;3265;42.694;23.282;2023-04-03T08:24:23;20.43;;;10.27;;
6463;SDS011;3265;42.694;23.282;2023-04-03T08:26:50;21.07;;;11.63;;
6463;SDS011;3265;42.694;23.282;2023-04-03T08:29:17;26.47;;;12.47;;
6463;SDS011;3265;42.694;23.282;2023-04-03T08:31:44;28.37;;;12.77;;
6463;SDS011;3265;42.694;23.282;2023-04-03T08:34:11;25.13;;;11.77;;
6463;SDS011;3265;42.694;23.282;2023-04-03T08:36:38;27.83;;;13.00;;
6463;SDS011;3265;42.694;23.282;2023-04-03T08:39:05;24.67;;;12.00;;
6463;SDS011;3265;42.694;23.282;2023-04-03T08:41:35;22.83;;;12.70;;
6463;SDS011;3265;42.694;23.282;2023-04-03T08:44:08;22.73;;;13.03;;
6463;SDS011;3265;42.694;23.282;2023-04-03T08:46:44;21.03;;;12.67;;
6463;SDS011;3265;42.694;23.282;2023-04-03T08:49:21;24.60;;;13.30;;
6463;SDS011;3265;42.694;23.282;2023-04-03T08:51:52;23.80;;;13.10;;
6463;SDS011;3265;42.694;23.282;2023-04-03T08:54:23;32.30;;;12.03;;
6463;SDS011;3265;42.694;23.282;2023-04-03T08:56:56;20.83;;;12.40;;
6463;SDS011;3265;42.694;23.282;2023-04-03T08:59:28;24.47;;;12.00;;
6463;SDS011;3265;42.694;23.282;2023-04-03T09:01:59;24.10;;;12.17;;
6463;SDS011;3265;42.694;23.282;2023-04-03T09:04:30;29.43;;;12.10;;
6463;SDS011;3265;42.694;23.282;2023-04-03T09:07:02;20.30;;;11.90;;
6463;SDS011;3265;42.694;23.282;2023-04-03T09:09:33;19.33;;;10.37;;
6463;SDS011;3265;42.694;23.282;2023-04-03T09:12:10;21.13;;;11.00;;
6463;SDS011;3265;42.694;23.282;2023-04-03T09:14:45;26.43;;;12.80;;
6463;SDS011;3265;42.694;23.282;2023-04-03T09:17:19;19.53;;;11.60;;
6463;SDS011;3265;42.694;23.282;2023-04-03T09:19:58;23.63;;;12.30;;
6463;SDS011;3265;42.694;23.282;2023-04-03T09:22:36;19.43;;;12.30;;
6463;SDS011;3265;42.694;23.282;2023-04-03T09:25:10;24.03;;;12.77;;
6463;SDS011;3265;42.694;23.282;2023-04-03T09:27:42;29.40;;;12.30;;
6463;SDS011;3265;42.694;23.282;2023-04-03T09:30:12;27.90;;;13.10;;
6463;SDS011;3265;42.694;23.282;2023-04-03T09:32:41;20.90;;;12.67;;
6463;SDS011;3265;42.694;23.282;2023-04-03T09:35:16;23.80;;;12.47;;
6463;SDS011;3265;42.694;23.282;2023-04-03T09:37:47;25.50;;;12.67;;
6463;SDS011;3265;42.694;23.282;2023-04-03T09:43:20;21.30;;;13.10;;
6463;SDS011;3265;42.694;23.282;2023-04-03T09:45:53;22.57;;;13.33;;
6463;SDS011;3265;42.694;23.282;2023-04-03T09:48:20;31.33;;;12.20;;
6463;SDS011;3265;42.694;23.282;2023-04-03T09:50:53;21.67;;;12.00;;
6463;SDS011;3265;42.694;23.282;2023-04-03T09:53:34;21.17;;;12.40;;
6463;SDS011;3265;42.694;23.282;2023-04-03T09:56:03;20.53;;;12.73;;
6463;SDS011;3265;42.694;23.282;2023-04-03T09:58:33;23.43;;;13.43;;
6463;SDS011;3265;42.694;23.282;2023-04-03T10:01:05;21.50;;;11.83;;
6463;SDS011;3265;42.694;23.282;2023-04-03T10:03:46;22.90;;;12.30;;
6463;SDS011;3265;42.694;23.282;2023-04-03T10:06:31;22.17;;;12.17;;
6463;SDS011;3265;42.694;23.282;2023-04-03T10:09:01;27.30;;;12.70;;
6463;SDS011;3265;42.694;23.282;2023-04-03T10:11:32;21.17;;;11.70;;
6463;SDS011;3265;42.694;23.282;2023-04-03T10:14:01;19.83;;;10.73;;
6463;SDS011;3265;42.694;23.282;2023-04-03T10:16:32;22.00;;;10.93;;
6463;SDS011;3265;42.694;23.282;2023-04-03T10:19:14;15.30;;;9.97;;
6463;SDS011;3265;42.694;23.282;2023-04-03T10:21:59;15.93;;;8.97;;
6463;SDS011;3265;42.694;23.282;2023-04-03T10:24:31;18.80;;;9.17;;
6463;SDS011;3265;42.694;23.282;2023-04-03T10:27:03;19.77;;;9.00;;
6463;SDS011;3265;42.694;23.282;2023-04-03T10:29:39;17.60;;;9.17;;
6463;SDS011;3265;42.694;23.282;2023-04-03T10:32:17;13.90;;;8.93;;
6463;SDS011;3265;42.694;23.282;2023-04-03T10:34:56;19.17;;;9.10;;
6463;SDS011;3265;42.694;23.282;2023-04-03T10:37:29;16.53;;;8.83;;
6463;SDS011;3265;42.694;23.282;2023-04-03T10:40:02;15.70;;;9.13;;
6463;SDS011;3265;42.694;23.282;2023-04-03T10:42:42;19.23;;;9.20;;
6463;SDS011;3265;42.694;23.282;2023-04-03T10:45:20;13.27;;;7.70;;
6463;SDS011;3265;42.694;23.282;2023-04-03T10:47:55;14.97;;;6.43;;
6463;SDS011;3265;42.694;23.282;2023-04-03T10:50:34;13.13;;;6.17;;
6463;SDS011;3265;42.694;23.282;2023-04-03T10:53:08;15.47;;;6.20;;
6463;SDS011;3265;42.694;23.282;2023-04-03T10:55:46;10.40;;;5.63;;
6463;SDS011;3265;42.694;23.282;2023-04-03T10:58:18;11.23;;;5.77;;
6463;SDS011;3265;42.694;23.282;2023-04-03T11:00:54;12.63;;;5.90;;
6463;SDS011;3265;42.694;23.282;2023-04-03T11:03:29;10.93;;;6.23;;
6463;SDS011;3265;42.694;23.282;2023-04-03T11:06:01;9.77;;;5.60;;
6463;SDS011;3265;42.694;23.282;2023-04-03T11:11:39;8.77;;;5.10;;
6463;SDS011;3265;42.694;23.282;2023-04-03T11:14:09;8.27;;;5.00;;
6463;SDS011;3265;42.694;23.282;2023-04-03T11:16:43;11.37;;;5.17;;
6463;SDS011;3265;42.694;23.282;2023-04-03T11:19:15;12.03;;;5.30;;
6463;SDS011;3265;42.694;23.282;2023-04-03T11:21:48;9.70;;;4.67;;
6463;SDS011;3265;42.694;23.282;2023-04-03T11:24:22;8.27;;;4.37;;
6463;SDS011;3265;42.694;23.282;2023-04-03T11:26:51;9.90;;;4.50;;
6463;SDS011;3265;42.694;23.282;2023-04-03T11:29:26;10.37;;;5.00;;
6463;SDS011;3265;42.694;23.282;2023-04-03T11:32:11;9.40;;;4.50;;
6463;SDS011;3265;42.694;23.282;2023-04-03T11:34:51;10.33;;;4.43;;
6463;SDS011;3265;42.694;23.282;2023-04-03T11:37:23;9.70;;;4.23;;
6463;SDS011;3265;42.694;23.282;2023-04-03T11:40:01;7.23;;;4.20;;
6463;SDS011;3265;42.694;23.282;2023-04-03T11:42:33;5.30;;;4.03;;
6463;SDS011;3265;42.694;23.282;2023-04-03T11:54:36;6.23;;;4.07;;
6463;SDS011;3265;42.694;23.282;2023-04-03T12:03:29;7.63;;;4.50;;
6463;SDS011;3265;42.694;23.282;2023-04-03T12:12:29;6.73;;;4.37;;
6463;SDS011;3265;42.694;23.282;2023-04-03T12:15:11;7.60;;;4.30;;
6463;SDS011;3265;42.694;23.282;2023-04-03T12:17:44;4.70;;;3.57;;
6463;SDS011;3265;42.694;23.282;2023-04-03T12:23:33;5.87;;;3.53;;
6463;SDS011;3265;42.694;23.282;2023-04-03T12:26:03;6.70;;;3.80;;
6463;SDS011;3265;42.694;23.282;2023-04-03T12:28:38;4.93;;;3.50;;
6463;SDS011;3265;42.694;23.282;2023-04-03T12:31:08;5.50;;;3.53;;
6463;SDS011;3265;42.694;23.282;2023-04-03T12:33:41;4.47;;;3.60;;
6463;SDS011;3265;42.694;23.282;2023-04-03T12:36:26;5.33;;;3.80;;
6463;SDS011;3265;42.694;23.282;2023-04-03T12:39:04;4.33;;;3.80;;
6463;SDS011;3265;42.694;23.282;2023-04-03T12:41:42;7.50;;;3.90;;
6463;SDS011;3265;42.694;23.282;2023-04-03T12:44:24;6.53;;;3.77;;
6463;SDS011;3265;42.694;23.282;2023-04-03T12:47:22;7.17;;;4.10;;
6463;SDS011;3265;42.694;23.282;2023-04-03T12:49:54;6.57;;;3.97;;
6463;SDS011;3265;42.694;23.282;2023-04-03T12:52:27;4.90;;;4.03;;
6463;SDS011;3265;42.694;23.282;2023-04-03T12:55:00;6.70;;;4.43;;
6463;SDS011;3265;42.694;23.282;2023-04-03T12:57:30;6.03;;;4.40;;
6463;SDS011;3265;42.694;23.282;2023-04-03T12:59:58;5.50;;;4.00;;
6463;SDS011;3265;42.694;23.282;2023-04-03T13:02:25;5.53;;;4.57;;
6463;SDS011;3265;42.694;23.282;2023-04-03T13:04:54;6.20;;;4.90;;
6463;SDS011;3265;42.694;23.282;2023-04-03T13:07:24;7.07;;;5.20;;
6463;SDS011;3265;42.694;23.282;2023-04-03T13:09:57;7.03;;;5.30;;
6463;SDS011;3265;42.694;23.282;2023-04-03T13:12:27;8.40;;;5.53;;
6463;SDS011;3265;42.694;23.282;2023-04-03T13:14:55;6.97;;;5.53;;
6463;SDS011;3265;42.694;23.282;2023-04-03T13:17:25;12.60;;;5.63;;
6463;SDS011;3265;42.694;23.282;2023-04-03T13:19:52;8.53;;;5.60;;
6463;SDS011;3265;42.694;23.282;2023-04-03T13:22:24;6.57;;;5.50;;
6463;SDS011;3265;42.694;23.282;2023-04-03T13:24:55;9.47;;;6.10;;
6463;SDS011;3265;42.694;23.282;2023-04-03T13:27:27;11.07;;;6.70;;
6463;SDS011;3265;42.694;23.282;2023-04-03T13:29:57;10.73;;;6.60;;
6463;SDS011;3265;42.694;23.282;2023-04-03T13:32:26;10.47;;;6.77;;
6463;SDS011;3265;42.694;23.282;2023-04-03T13:34:55;10.10;;;6.50;;
6463;SDS011;3265;42.694;23.282;2023-04-03T13:37:23;9.50;;;6.77;;
6463;SDS011;3265;42.694;23.282;2023-04-03T13:39:59;10.97;;;7.20;;
6463;SDS011;3265;42.694;23.282;2023-04-03T13:42:31;10.13;;;6.97;;
6463;SDS011;3265;42.694;23.282;2023-04-03T13:48:05;10.00;;;7.17;;
6463;SDS011;3265;42.694;23.282;2023-04-03T13:50:41;11.53;;;6.17;;
6463;SDS011;3265;42.694;23.282;2023-04-03T13:53:25;10.50;;;6.60;;
6463;SDS011;3265;42.694;23.282;2023-04-03T13:55:58;8.23;;;6.27;;
6463;SDS011;3265;42.694;23.282;2023-04-03T13:58:33;8.77;;;5.90;;
6463;SDS011;3265;42.694;23.282;2023-04-03T14:01:06;8.00;;;5.83;;
6463;SDS011;3265;42.694;23.282;2023-04-03T14:03:40;8.87;;;5.40;;
6463;SDS011;3265;42.694;23.282;2023-04-03T14:06:10;8.70;;;5.83;;
6463;SDS011;3265;42.694;23.282;2023-04-03T14:08:38;7.73;;;6.00;;
6463;SDS011;3265;42.694;23.282;2023-04-03T14:11:08;8.80;;;5.80;;
6463;SDS011;3265;42.694;23.282;2023-04-03T14:13:40;7.50;;;5.93;;
6463;SDS011;3265;42.694;23.282;2023-04-03T14:16:07;11.30;;;7.13;;
6463;SDS011;3265;42.694;23.282;2023-04-03T14:18:38;9.07;;;6.70;;
6463;SDS011;3265;42.694;23.282;2023-04-03T14:21:05;9.83;;;6.53;;
6463;SDS011;3265;42.694;23.282;2023-04-03T14:23:32;9.93;;;7.13;;
6463;SDS011;3265;42.694;23.282;2023-04-03T14:26:00;9.97;;;6.80;;
6463;SDS011;3265;42.694;23.282;2023-04-03T14:34:26;11.90;;;7.53;;
6463;SDS011;3265;42.694;23.282;2023-04-03T14:36:57;9.73;;;7.50;;
6463;SDS011;3265;42.694;23.282;2023-04-03T14:39:27;11.93;;;8.60;;
6463;SDS011;3265;42.694;23.282;2023-04-03T14:41:53;9.87;;;7.87;;
6463;SDS011;3265;42.694;23.282;2023-04-03T14:44:22;12.07;;;8.03;;
6463;SDS011;3265;42.694;23.282;2023-04-03T14:46:49;8.67;;;7.40;;
6463;SDS011;3265;42.694;23.282;2023-04-03T14:49:18;10.23;;;7.60;;
6463;SDS011;3265;42.694;23.282;2023-04-03T14:51:50;9.23;;;6.60;;
6463;SDS011;3265;42.694;23.282;2023-04-03T14:54:19;9.53;;;7.00;;
6463;SDS011;3265;42.694;23.282;2023-04-03T14:56:52;8.23;;;6.47;;
6463;SDS011;3265;42.694;23.282;2023-04-03T14:59:19;8.23;;;6.50;;
6463;SDS011;3265;42.694;23.282;2023-04-03T15:01:48;8.37;;;6.23;;
6463;SDS011;3265;42.694;23.282;2023-04-03T15:04:21;9.63;;;6.23;;
6463;SDS011;3265;42.694;23.282;2023-04-03T15:06:48;6.53;;;5.73;;
6463;SDS011;3265;42.694;23.282;2023-04-03T15:09:19;6.90;;;5.93;;
6463;SDS011;3265;42.694;23.282;2023-04-03T15:11:51;9.57;;;5.60;;
6463;SDS011;3265;42.694;23.282;2023-04-03T15:14:19;6.97;;;5.50;;
6463;SDS011;3265;42.694;23.282;2023-04-03T15:16:50;7.73;;;5.47;;
6463;SDS011;3265;42.694;23.282;2023-04-03T15:19:17;6.83;;;4.70;;
6463;SDS011;3265;42.694;23.282;2023-04-03T15:21:47;7.70;;;5.20;;
6463;SDS011;3265;42.694;23.282;2023-04-03T15:24:14;4.87;;;4.37;;
6463;SDS011;3265;42.694;23.282;2023-04-03T15:26:44;7.47;;;4.70;;
6463;SDS011;3265;42.694;23.282;2023-04-03T15:29:17;7.17;;;4.50;;
6463;SDS011;3265;42.694;23.282;2023-04-03T15:31:44;5.87;;;4.60;;
6463;SDS011;3265;42.694;23.282;2023-04-03T15:34:12;11.43;;;4.80;;
6463;SDS011;3265;42.694;23.282;2023-04-03T15:36:39;8.83;;;5.13;;
6463;SDS011;3265;42.694;23.282;2023-04-03T15:39:10;6.63;;;4.70;;
6463;SDS011;3265;42.694;23.282;2023-04-03T15:41:40;7.00;;;4.20;;
6463;SDS011;3265;42.694;23.282;2023-04-03T15:44:07;6.23;;;4.70;;